Time;durP1;ratioP1;P1;durP2;ratioP2;P2;SDS_P1;SDS_P2;PMS_P1;PMS_P2;Temp;Humidity;BMP_temperature;BMP_pressure;BME280_temperature;BME280_humidity;BME280_pressure;Samples;Min_cycle;Max_cycle;Signal;HPM_P1;HPM_P2
2023/05/03 00:01:42;;;;;;;1.70;0.70;;;;;;;11.53;55.13;99628.13;5132437;27;20239;-76
2023/05/03 00:04:10;;;;;;;0.97;0.87;;;;;;;11.41;56.11;99623.84;5132557;27;20216;-76
2023/05/03 00:06:37;;;;;;;0.53;0.53;;;;;;;11.38;54.82;99622.28;5132406;27;20221;-76
2023/05/03 00:09:03;;;;;;;1.60;0.73;;;;;;;11.43;55.21;99620.25;5132399;27;20222;-76
2023/05/03 00:11:30;;;;;;;1.10;0.87;;;;;;;11.40;54.69;99605.06;5132314;27;20200;-76
2023/05/03 00:13:57;;;;;;;0.87;0.87;;;;;;;11.42;54.48;99608.34;5131801;27;20589;-76
2023/05/03 00:16:24;;;;;;;1.40;1.00;;;;;;;11.33;54.36;99619.22;5132238;27;20201;-75
2023/05/03 00:18:51;;;;;;;1.17;0.80;;;;;;;11.44;54.26;99603.97;5132260;27;20227;-76
2023/05/03 00:21:19;;;;;;;1.97;1.13;;;;;;;11.48;54.11;99602.00;5131939;27;20228;-76
2023/05/03 00:23:46;;;;;;;0.70;0.70;;;;;;;11.52;53.40;99604.25;5132019;27;20664;-76
2023/05/03 00:26:13;;;;;;;1.17;0.93;;;;;;;11.47;54.25;99596.06;5132125;27;20221;-76
2023/05/03 00:28:40;;;;;;;1.93;1.17;;;;;;;11.53;53.49;99595.66;5132130;27;20193;-76
2023/05/03 00:31:08;;;;;;;3.47;1.07;;;;;;;11.49;53.61;99589.09;5132063;27;20220;-76
2023/05/03 00:33:35;;;;;;;1.53;1.00;;;;;;;11.45;53.32;99591.97;5131915;27;20213;-76
2023/05/03 00:36:08;;;;;;;1.80;1.00;;;;;;;11.56;53.12;99595.44;5131654;27;20764;-76
2023/05/03 00:38:36;;;;;;;1.00;0.80;;;;;;;11.62;52.66;99598.50;5132005;27;20787;-76
2023/05/03 00:41:03;;;;;;;0.87;0.87;;;;;;;11.61;53.25;99607.13;5131704;27;20212;-76
2023/05/03 00:43:31;;;;;;;1.60;1.10;;;;;;;11.56;53.23;99610.00;5131647;27;20232;-76
2023/05/03 00:45:59;;;;;;;2.20;1.17;;;;;;;11.63;53.51;99595.00;5131558;27;20220;-76
2023/05/03 00:48:27;;;;;;;0.97;0.80;;;;;;;11.55;53.22;99596.38;5131791;27;20208;-76
2023/05/03 00:50:54;;;;;;;1.70;1.20;;;;;;;11.42;53.53;99595.56;5131635;27;20284;-76
2023/05/03 00:53:22;;;;;;;2.13;1.23;;;;;;;11.46;53.21;99596.16;5131697;27;20232;-76
2023/05/03 00:55:52;;;;;;;1.67;1.10;;;;;;;11.41;53.71;99601.59;5131572;27;20277;-76
2023/05/03 00:58:19;;;;;;;2.43;1.43;;;;;;;11.43;53.78;99598.94;5131758;27;20204;-76
2023/05/03 01:00:47;;;;;;;1.67;1.27;;;;;;;11.58;54.06;99603.03;5131102;27;20209;-76
2023/05/03 01:03:14;;;;;;;0.97;0.87;;;;;;;11.40;53.54;99586.34;5131315;27;20236;-76
2023/05/03 01:05:51;;;;;;;1.13;0.93;;;;;;;11.39;54.32;99582.97;5131507;27;20224;-76
2023/05/03 01:08:25;;;;;;;1.13;1.00;;;;;;;11.44;54.05;99575.78;5131142;27;20196;-76
2023/05/03 01:11:02;;;;;;;1.47;0.77;;;;;;;11.29;54.69;99566.59;5131511;27;20729;-76
2023/05/03 01:13:38;;;;;;;0.93;0.83;;;;;;;11.26;54.49;99567.63;5131286;27;20286;-76
2023/05/03 01:16:12;;;;;;;0.93;0.80;;;;;;;11.21;54.71;99563.72;5131146;27;20217;-76
2023/05/03 01:18:42;;;;;;;0.67;0.67;;;;;;;11.25;54.44;99570.28;5131108;27;20664;-76
2023/05/03 01:21:10;;;;;;;0.60;0.60;;;;;;;11.17;55.04;99563.13;5131027;27;20215;-76
2023/05/03 01:23:43;;;;;;;1.17;1.07;;;;;;;11.26;55.37;99561.69;5130922;27;20257;-76
2023/05/03 01:26:20;;;;;;;0.70;0.70;;;;;;;11.26;55.11;99561.69;5130979;27;20692;-76
2023/05/03 01:28:47;;;;;;;1.93;1.30;;;;;;;11.14;55.15;99558.22;5130886;27;20277;-76
2023/05/03 01:31:19;;;;;;;0.73;0.73;;;;;;;11.25;55.63;99560.03;5130903;27;20240;-76
2023/05/03 01:33:53;;;;;;;1.90;1.03;;;;;;;11.18;55.65;99569.06;5131122;27;20201;-75
2023/05/03 01:36:23;;;;;;;1.03;0.93;;;;;;;11.08;55.68;99572.22;5130933;27;20194;-75
2023/05/03 01:38:50;;;;;;;2.07;0.80;;;;;;;11.13;55.74;99573.66;5130864;27;20685;-76
2023/05/03 01:41:21;;;;;;;1.10;1.00;;;;;;;11.19;55.24;99576.63;5130633;27;20648;-76
2023/05/03 01:43:48;;;;;;;0.70;0.70;;;;;;;11.23;55.08;99572.13;5130855;27;20287;-76
2023/05/03 01:46:15;;;;;;;1.50;0.90;;;;;;;11.30;54.82;99583.59;5130654;27;20219;-76
2023/05/03 01:48:42;;;;;;;1.33;1.07;;;;;;;11.39;54.28;99582.97;5130869;27;20212;-76
2023/05/03 01:51:09;;;;;;;1.50;0.90;;;;;;;11.34;54.31;99585.00;5130629;27;20217;-76
2023/05/03 01:53:36;;;;;;;0.83;0.77;;;;;;;11.44;54.54;99580.09;5130692;27;20291;-76
2023/05/03 01:56:03;;;;;;;1.60;1.30;;;;;;;11.34;54.44;99579.88;5130455;28;20208;-76
2023/05/03 01:58:31;;;;;;;1.03;0.80;;;;;;;11.47;54.76;99578.16;5130781;28;20246;-76
2023/05/03 02:00:58;;;;;;;0.70;0.70;;;;;;;11.34;54.76;99579.88;5130444;28;20219;-76
2023/05/03 02:03:24;;;;;;;1.37;0.97;;;;;;;11.43;55.80;99573.31;5130469;28;20298;-76
2023/05/03 02:05:51;;;;;;;0.80;0.70;;;;;;;11.31;56.05;99574.97;5130613;27;20293;-76
2023/05/03 02:08:18;;;;;;;1.30;1.00;;;;;;;11.28;55.57;99570.88;5130560;28;20197;-76
2023/05/03 02:10:45;;;;;;;1.17;1.03;;;;;;;11.22;56.25;99562.81;5130301;28;20708;-76
2023/05/03 02:13:12;;;;;;;1.93;1.27;;;;;;;11.22;57.02;99555.13;5130633;27;20199;-76
2023/05/03 02:15:40;;;;;;;1.10;0.93;;;;;;;11.14;56.76;99558.22;5130520;28;20295;-76
2023/05/03 02:18:07;;;;;;;1.00;0.60;;;;;;;11.22;56.97;99552.56;5130632;28;20200;-76
2023/05/03 02:20:36;;;;;;;1.13;1.07;;;;;;;11.21;56.39;99558.63;5130511;27;20228;-76
2023/05/03 02:23:03;;;;;;;0.70;0.67;;;;;;;11.10;56.69;99562.69;5130162;28;20232;-76
2023/05/03 02:25:30;;;;;;;1.70;1.10;;;;;;;11.01;57.03;99568.44;5130454;28;20344;-76
2023/05/03 02:27:57;;;;;;;0.73;0.70;;;;;;;11.17;57.08;99567.41;5130388;28;20211;-76
2023/05/03 02:30:24;;;;;;;1.07;0.80;;;;;;;11.10;57.24;99557.56;5130226;28;20281;-76
2023/05/03 02:32:52;;;;;;;0.90;0.80;;;;;;;11.16;57.38;99556.34;5130328;28;20197;-76
2023/05/03 02:35:19;;;;;;;1.37;1.27;;;;;;;10.98;57.46;99558.41;5130251;27;20212;-76
2023/05/03 02:37:45;;;;;;;2.53;0.90;;;;;;;10.99;58.25;99565.16;5134067;27;20648;-76
2023/05/03 02:40:12;;;;;;;0.67;0.67;;;;;;;11.01;58.75;99558.19;5134277;27;20225;-76
2023/05/03 02:42:40;;;;;;;0.90;0.90;;;;;;;10.95;58.34;99563.72;5133853;27;20224;-76
2023/05/03 02:45:07;;;;;;;0.67;0.60;;;;;;;10.97;59.07;99561.88;5134067;27;20220;-76
2023/05/03 02:47:34;;;;;;;0.63;0.63;;;;;;;10.97;59.20;99572.13;5133747;27;20219;-76
2023/05/03 02:50:02;;;;;;;0.70;0.63;;;;;;;11.00;59.63;99576.22;5134023;27;20220;-76
2023/05/03 02:52:29;;;;;;;1.90;0.70;;;;;;;10.86;59.85;99574.56;5133782;27;20196;-76
2023/05/03 02:54:56;;;;;;;0.87;0.63;;;;;;;10.98;60.86;99568.63;5134015;27;20216;-76
2023/05/03 02:57:23;;;;;;;1.20;0.73;;;;;;;10.98;61.53;99568.63;5133670;27;20204;-76
2023/05/03 02:59:50;;;;;;;1.40;1.20;;;;;;;10.97;61.28;99567.00;5134123;27;20220;-76
2023/05/03 03:02:16;;;;;;;1.70;0.87;;;;;;;10.90;62.13;99564.94;5133695;27;20250;-76
2023/05/03 03:04:43;;;;;;;5.70;1.30;;;;;;;10.75;62.58;99566.78;5133659;27;20228;-77
2023/05/03 03:07:11;;;;;;;1.07;0.67;;;;;;;10.72;62.79;99566.97;5133733;27;20668;-76
2023/05/03 03:09:38;;;;;;;0.73;0.60;;;;;;;10.84;63.65;99566.16;5133747;27;20224;-76
2023/05/03 03:12:05;;;;;;;1.83;0.73;;;;;;;10.74;63.54;99565.16;5133622;27;20261;-76
2023/05/03 03:14:32;;;;;;;0.77;0.77;;;;;;;10.73;65.14;99563.47;5133633;27;20246;-76
2023/05/03 03:17:01;;;;;;;0.80;0.80;;;;;;;10.64;66.01;99563.16;5133646;27;20257;-76
2023/05/03 03:19:28;;;;;;;1.07;0.77;;;;;;;10.58;66.55;99560.19;5133350;27;20673;-76
2023/05/03 03:21:55;;;;;;;1.10;0.87;;;;;;;10.51;67.54;99558.97;5133451;27;20656;-76
2023/05/03 03:24:23;;;;;;;1.30;0.90;;;;;;;10.54;67.41;99549.34;5133554;27;20213;-76
2023/05/03 03:26:49;;;;;;;2.90;1.07;;;;;;;10.37;68.12;99557.28;5133359;27;20636;-76
2023/05/03 03:29:16;;;;;;;0.77;0.77;;;;;;;10.49;69.14;99556.47;5133258;27;20213;-76
2023/05/03 03:31:43;;;;;;;1.00;0.90;;;;;;;10.48;69.06;99554.84;5133096;27;20201;-76
2023/05/03 03:34:11;;;;;;;1.57;1.00;;;;;;;10.37;70.86;99562.38;5133681;27;20627;-76
2023/05/03 03:36:38;;;;;;;3.57;1.37;;;;;;;10.34;70.93;99560.03;5132901;27;20664;-76
2023/05/03 03:39:05;;;;;;;1.47;1.07;;;;;;;10.31;73.79;99562.78;5132920;27;20204;-76
2023/05/03 03:41:33;;;;;;;2.23;1.27;;;;;;;10.34;74.20;99562.59;5132983;27;20682;-76
2023/05/03 03:44:00;;;;;;;0.90;0.90;;;;;;;10.31;74.83;99555.13;5133094;27;20233;-76
2023/05/03 03:46:27;;;;;;;1.47;0.97;;;;;;;10.39;77.05;99547.78;5132720;27;20201;-76
2023/05/03 03:48:54;;;;;;;1.10;0.67;;;;;;;10.32;77.80;99552.44;5132864;27;20192;-76
2023/05/03 03:51:21;;;;;;;1.57;1.17;;;;;;;10.26;78.73;99549.44;5133032;27;20220;-76
2023/05/03 03:53:47;;;;;;;3.43;1.43;;;;;;;10.36;78.83;99550.53;5133064;27;20664;-76
2023/05/03 03:56:14;;;;;;;1.07;1.07;;;;;;;10.18;80.09;99548.19;5132643;27;20219;-76
2023/05/03 03:58:42;;;;;;;1.20;0.97;;;;;;;10.14;80.41;99556.97;5132652;27;20208;-76
2023/05/03 04:01:11;;;;;;;1.60;1.17;;;;;;;10.18;80.68;99567.81;5132604;27;20592;-76
2023/05/03 04:03:37;;;;;;;1.07;0.97;;;;;;;10.23;81.34;99565.78;5132537;27;20231;-76
2023/05/03 04:06:05;;;;;;;2.57;0.90;;;;;;;10.20;81.60;99556.56;5132358;27;20225;-76
2023/05/03 04:08:31;;;;;;;0.80;0.77;;;;;;;10.31;82.43;99571.25;5132494;27;20203;-76
2023/05/03 04:10:58;;;;;;;1.30;0.97;;;;;;;10.26;82.58;99583.47;5132406;27;20259;-76
2023/05/03 04:13:25;;;;;;;1.13;1.00;;;;;;;10.24;82.61;99587.88;5132331;27;20373;-76
2023/05/03 04:15:56;;;;;;;0.93;0.93;;;;;;;10.33;83.72;99606.97;5132556;27;20220;-76
2023/05/03 04:18:22;;;;;;;0.93;0.87;;;;;;;10.34;83.13;99601.75;5132521;27;20571;-76
2023/05/03 04:20:49;;;;;;;1.90;1.33;;;;;;;10.35;83.22;99605.09;5132175;27;20273;-76
2023/05/03 04:23:16;;;;;;;1.83;0.87;;;;;;;10.42;82.87;99611.50;5132100;27;20763;-76
2023/05/03 04:25:45;;;;;;;1.60;1.07;;;;;;;10.49;83.43;99612.72;5132028;27;20227;-76
2023/05/03 04:28:12;;;;;;;2.23;1.13;;;;;;;10.60;84.21;99620.53;5132276;27;20216;-76
2023/05/03 04:30:40;;;;;;;1.27;1.13;;;;;;;10.53;85.17;99618.47;5132059;27;20224;-76
2023/05/03 04:33:09;;;;;;;1.30;1.20;;;;;;;10.49;84.43;99612.72;5131886;27;20208;-76
2023/05/03 04:35:36;;;;;;;1.27;1.17;;;;;;;10.62;85.34;99611.03;5131915;27;20231;-76
2023/05/03 04:38:03;;;;;;;1.23;0.90;;;;;;;10.67;86.09;99615.03;5132045;27;20192;-76
2023/05/03 04:40:30;;;;;;;1.33;1.03;;;;;;;10.70;85.44;99610.53;5131787;27;20220;-76
2023/05/03 04:42:57;;;;;;;1.10;1.03;;;;;;;10.83;85.88;99605.47;5131528;27;20242;-76
2023/05/03 04:45:25;;;;;;;1.10;0.90;;;;;;;10.97;86.12;99615.63;5131783;27;20217;-76
2023/05/03 04:47:53;;;;;;;1.17;1.07;;;;;;;11.09;85.69;99622.47;5131735;27;20203;-75
2023/05/03 04:50:21;;;;;;;1.20;1.00;;;;;;;11.22;85.96;99617.38;5131709;27;20307;-76
2023/05/03 04:52:48;;;;;;;1.27;1.07;;;;;;;11.22;85.74;99622.47;5131725;27;20721;-76
2023/05/03 04:55:15;;;;;;;1.50;1.20;;;;;;;11.28;85.39;99618.69;5131545;27;20224;-76
2023/05/03 04:57:42;;;;;;;3.13;1.30;;;;;;;11.43;85.61;99621.97;5131458;27;20205;-76
2023/05/03 05:00:11;;;;;;;1.10;1.00;;;;;;;11.44;85.36;99627.00;5131003;27;20224;-76
2023/05/03 05:02:37;;;;;;;1.00;0.87;;;;;;;11.42;84.53;99638.25;5131447;27;20591;-76
2023/05/03 05:05:05;;;;;;;1.27;1.17;;;;;;;11.43;86.06;99643.31;5131450;27;20232;-76
2023/05/03 05:07:33;;;;;;;6.73;1.33;;;;;;;11.47;85.81;99637.03;5131734;27;20585;-76
2023/05/03 05:10:00;;;;;;;0.83;0.83;;;;;;;11.63;86.08;99636.81;5131440;27;20227;-76
2023/05/03 05:12:27;;;;;;;2.13;1.13;;;;;;;11.52;83.59;99635.00;5131011;27;20207;-76
2023/05/03 05:14:54;;;;;;;1.90;1.23;;;;;;;11.50;85.41;99636.00;5131339;27;20220;-76
2023/05/03 05:17:21;;;;;;;2.30;1.23;;;;;;;11.52;84.52;99644.44;5131085;27;20710;-77
2023/05/03 05:19:48;;;;;;;1.40;1.30;;;;;;;11.54;85.72;99645.13;5130995;27;20727;-77
2023/05/03 05:22:15;;;;;;;1.73;1.37;;;;;;;11.61;87.02;99653.22;5130937;27;20200;-77
2023/05/03 05:24:43;;;;;;;1.30;1.20;;;;;;;11.76;86.02;99644.50;5130949;27;20236;-77
2023/05/03 05:27:09;;;;;;;0.93;0.83;;;;;;;11.84;85.14;99647.34;5131136;27;20204;-77
2023/05/03 05:29:36;;;;;;;1.10;0.90;;;;;;;11.83;84.37;99648.25;5130870;27;20224;-77
2023/05/03 05:32:04;;;;;;;1.70;1.50;;;;;;;12.05;83.91;99657.09;5130989;27;20200;-77
2023/05/03 05:34:31;;;;;;;2.47;1.40;;;;;;;12.10;83.93;99665.25;5130796;27;20232;-77
2023/05/03 05:36:58;;;;;;;1.13;1.10;;;;;;;12.00;81.85;99670.22;5130887;27;20245;-77
2023/05/03 05:39:25;;;;;;;1.20;0.90;;;;;;;11.97;83.25;99653.28;5130949;27;20220;-76
2023/05/03 05:41:53;;;;;;;2.10;1.30;;;;;;;11.96;82.56;99664.47;5130837;27;20197;-77
2023/05/03 05:44:20;;;;;;;1.77;1.13;;;;;;;12.26;83.88;99658.16;5130783;27;20232;-77
2023/05/03 05:46:48;;;;;;;1.40;1.27;;;;;;;12.46;80.86;99667.81;5131066;27;20210;-76
2023/05/03 05:49:14;;;;;;;1.53;1.27;;;;;;;12.50;80.02;99667.59;5130941;27;20303;-76
2023/05/03 05:51:41;;;;;;;1.80;1.40;;;;;;;12.66;80.61;99665.59;5130495;27;20688;-77
2023/05/03 05:54:08;;;;;;;3.30;1.60;;;;;;;12.79;80.57;99663.75;5130589;27;20698;-77
2023/05/03 05:56:35;;;;;;;2.43;1.70;;;;;;;13.00;81.61;99663.13;5130619;28;20192;-76
2023/05/03 05:59:04;;;;;;;1.63;1.53;;;;;;;13.24;84.00;99653.66;5130735;27;20284;-77
2023/05/03 06:01:32;;;;;;;1.57;1.30;;;;;;;13.36;80.40;99668.16;5130812;27;20190;-77
2023/05/03 06:03:59;;;;;;;3.17;1.37;;;;;;;13.44;79.61;99669.34;5130530;28;20287;-77
2023/05/03 06:06:26;;;;;;;1.00;0.90;;;;;;;13.61;78.38;99661.19;5130487;28;20253;-76
2023/05/03 06:08:52;;;;;;;1.50;1.40;;;;;;;13.89;78.74;99669.38;5130799;28;20442;-76
2023/05/03 06:11:20;;;;;;;1.23;1.13;;;;;;;14.15;77.08;99675.06;5132230;27;20202;-76
2023/05/03 06:13:46;;;;;;;1.57;1.30;;;;;;;14.56;78.84;99669.28;5135262;27;20214;-77
2023/05/03 06:16:15;;;;;;;2.53;1.33;;;;;;;14.95;77.60;99669.56;5134722;27;20215;-77
2023/05/03 06:18:41;;;;;;;2.20;1.50;;;;;;;15.23;75.41;99667.34;5134590;27;20208;-76
2023/05/03 06:21:10;;;;;;;1.70;1.40;;;;;;;15.37;74.34;99667.00;5138404;27;20239;-78
2023/05/03 06:23:38;;;;;;;2.00;1.23;;;;;;;15.36;71.77;99666.22;5139424;27;20236;-78
2023/05/03 06:26:05;;;;;;;5.07;1.57;;;;;;;15.44;73.16;99665.56;5138143;27;20232;-79
2023/05/03 06:28:32;;;;;;;1.77;1.30;;;;;;;15.26;72.34;99682.53;5138213;27;20732;-78
2023/05/03 06:30:59;;;;;;;1.60;1.23;;;;;;;15.46;73.14;99673.97;5138824;27;20224;-78
2023/05/03 06:33:28;;;;;;;1.57;1.20;;;;;;;15.34;69.28;99690.47;5138713;27;20203;-78
2023/05/03 06:35:55;;;;;;;1.37;1.20;;;;;;;15.38;69.65;99686.69;5137647;27;20213;-78
2023/05/03 06:38:22;;;;;;;1.37;1.27;;;;;;;15.44;72.02;99686.16;5139120;27;20197;-79
2023/05/03 06:40:50;;;;;;;1.90;1.40;;;;;;;15.39;68.41;99693.47;5136703;27;20213;-79
2023/05/03 06:43:16;;;;;;;1.90;1.57;;;;;;;15.33;70.82;99693.97;5137986;27;20285;-78
2023/05/03 06:45:44;;;;;;;1.67;1.40;;;;;;;15.27;69.08;99684.16;5135206;27;20217;-78
2023/05/03 06:48:11;;;;;;;2.53;1.33;;;;;;;15.41;70.06;99683.84;5137950;27;20192;-78
2023/05/03 06:50:39;;;;;;;3.60;1.70;;;;;;;15.52;68.75;99688.13;5139173;27;20249;-79
2023/05/03 06:53:06;;;;;;;2.73;1.40;;;;;;;15.71;68.74;99687.44;5139031;27;20196;-78
2023/05/03 06:55:32;;;;;;;1.83;1.50;;;;;;;15.79;69.09;99695.31;5140141;27;20217;-78
2023/05/03 06:58:00;;;;;;;2.00;1.40;;;;;;;15.67;68.03;99693.75;5139184;27;20574;-78
2023/05/03 07:00:27;;;;;;;2.20;1.50;;;;;;;15.68;68.34;99692.81;5138730;27;20236;-78
2023/05/03 07:02:54;;;;;;;2.90;1.53;;;;;;;15.91;70.05;99694.31;5139188;27;20220;-78
2023/05/03 07:05:21;;;;;;;1.57;1.30;;;;;;;16.14;70.00;99704.41;5138436;27;20709;-78
2023/05/03 07:07:49;;;;;;;2.63;1.60;;;;;;;15.80;67.96;99704.72;5136788;28;20201;-78
2023/05/03 07:10:16;;;;;;;1.77;1.30;;;;;;;16.13;68.26;99708.75;5136928;28;20216;-78
2023/05/03 07:12:43;;;;;;;2.33;1.50;;;;;;;16.24;67.68;99715.59;5137807;28;20714;-78
2023/05/03 07:15:10;;;;;;;2.10;1.53;;;;;;;16.35;67.51;99723.22;5138044;27;20220;-78
2023/05/03 07:17:37;;;;;;;1.70;1.50;;;;;;;16.63;67.86;99720.81;5137181;28;20207;-78
2023/05/03 07:20:04;;;;;;;1.93;1.40;;;;;;;16.74;66.74;99718.13;5137337;28;20273;-78
2023/05/03 07:22:31;;;;;;;1.73;1.30;;;;;;;16.85;68.01;99727.53;5136634;27;20205;-78
2023/05/03 07:24:59;;;;;;;1.73;1.37;;;;;;;16.74;63.32;99723.28;5137420;28;20244;-78
2023/05/03 07:27:26;;;;;;;2.23;1.40;;;;;;;16.47;65.29;99714.41;5136631;28;20197;-78
2023/05/03 07:29:53;;;;;;;3.83;2.03;;;;;;;16.16;66.23;99712.84;5137314;28;20228;-78
2023/05/03 07:32:20;;;;;;;3.67;1.50;;;;;;;16.05;66.64;99721.50;5136127;28;20197;-78
2023/05/03 07:34:47;;;;;;;1.90;1.40;;;;;;;16.33;67.72;99729.47;5138104;28;20224;-78
2023/05/03 07:37:14;;;;;;;2.00;1.40;;;;;;;16.38;67.53;99722.16;5137650;28;20193;-78
2023/05/03 07:39:41;;;;;;;1.90;1.30;;;;;;;16.43;68.54;99720.78;5137731;28;20223;-79
2023/05/03 07:42:09;;;;;;;4.00;1.87;;;;;;;16.72;67.58;99725.19;5136865;28;20197;-78
2023/05/03 07:44:36;;;;;;;2.60;1.50;;;;;;;16.63;66.95;99731.16;5138405;28;20240;-78
2023/05/03 07:47:03;;;;;;;2.30;1.20;;;;;;;16.61;68.79;99733.03;5137840;28;20211;-78
2023/05/03 07:49:34;;;;;;;2.60;1.77;;;;;;;16.50;66.23;99734.81;5139527;28;20580;-78
2023/05/03 07:52:01;;;;;;;3.13;1.63;;;;;;;16.50;68.18;99737.38;5139262;27;20251;-78
2023/05/03 07:54:28;;;;;;;5.67;1.90;;;;;;;16.51;69.21;99733.84;5138054;28;20230;-78
2023/05/03 09:13:33;;;;;;;2.50;1.83;;;;;;;15.78;78.26;99629.25;5107155;27;20564;-78
2023/05/03 09:16:01;;;;;;;2.80;1.70;;;;;;;15.57;79.40;99634.44;5107832;28;20194;-77
2023/05/03 09:18:29;;;;;;;2.70;1.77;;;;;;;15.59;78.24;99617.91;5107536;28;20697;-77
2023/05/03 09:20:56;;;;;;;7.07;3.70;;;;;;;15.53;80.97;99618.41;5107313;28;20501;-76
2023/05/03 09:23:31;;;;;;;4.17;2.13;;;;;;;15.45;81.81;99612.28;5107517;28;20239;-77
2023/05/03 09:25:59;;;;;;;2.67;2.00;;;;;;;15.46;84.34;99630.16;5107273;28;20341;-77
2023/05/03 09:28:25;;;;;;;4.77;2.80;;;;;;;15.48;83.70;99641.19;5107148;28;20217;-77
2023/05/03 09:31:05;;;;;;;3.63;1.90;;;;;;;15.37;84.30;99657.53;5107213;28;20734;-76
2023/05/03 09:33:32;;;;;;;2.73;1.87;;;;;;;15.24;83.72;99674.13;5107369;28;20228;-77
2023/05/03 09:36:00;;;;;;;2.93;1.70;;;;;;;15.11;85.87;99689.75;5107116;28;20212;-76
2023/05/03 09:38:28;;;;;;;3.17;1.83;;;;;;;15.20;84.81;99703.66;5106843;28;20221;-76
2023/05/03 09:40:54;;;;;;;2.90;1.70;;;;;;;15.32;83.56;99707.78;5107292;28;20207;-77
2023/05/03 09:43:21;;;;;;;3.47;2.33;;;;;;;15.39;82.88;99707.19;5107072;28;20274;-76
2023/05/03 09:45:48;;;;;;;1.60;1.10;;;;;;;15.29;82.32;99703.72;5106789;28;20648;-76
2023/05/03 09:48:19;;;;;;;3.33;1.80;;;;;;;15.37;82.59;99700.50;5106725;28;20221;-76
2023/05/03 09:50:46;;;;;;;2.37;1.80;;;;;;;15.45;82.78;99687.00;5107084;28;20201;-77
2023/05/03 09:53:17;;;;;;;2.03;1.37;;;;;;;15.59;83.18;99690.06;5106654;28;20606;-76
2023/05/03 09:55:44;;;;;;;5.83;1.77;;;;;;;15.66;84.64;99690.38;5106820;28;20202;-76
2023/05/03 09:58:11;;;;;;;2.43;1.87;;;;;;;15.80;82.26;99684.09;5106676;28;20210;-76
2023/05/03 10:00:39;;;;;;;2.63;1.60;;;;;;;15.94;83.46;99683.72;5106986;28;20252;-76
2023/05/03 10:03:10;;;;;;;1.77;1.50;;;;;;;16.17;83.45;99683.50;5106380;28;20268;-76
2023/05/03 10:05:46;;;;;;;2.60;1.60;;;;;;;16.11;80.27;99684.03;5106591;28;20256;-77
2023/05/03 10:08:19;;;;;;;2.07;1.50;;;;;;;16.31;81.45;99690.88;5106825;28;20223;-77
2023/05/03 10:10:51;;;;;;;2.53;1.73;;;;;;;16.46;82.26;99689.56;5106343;28;20209;-76
2023/05/03 10:13:19;;;;;;;4.23;1.93;;;;;;;16.50;77.75;99683.19;5106157;28;20238;-77
2023/05/03 10:15:47;;;;;;;2.27;1.77;;;;;;;16.62;78.82;99683.88;5106292;28;20703;-77
2023/05/03 10:18:17;;;;;;;2.43;1.90;;;;;;;16.70;78.60;99671.09;5106061;28;20224;-76
2023/05/03 10:20:53;;;;;;;6.70;2.00;;;;;;;16.73;76.92;99663.09;5106352;28;20205;-76
2023/05/03 10:23:20;;;;;;;2.83;1.40;;;;;;;16.85;73.55;99653.47;5100539;28;20228;-77
2023/05/03 10:26:14;;;;;;;3.73;1.30;;;;;;;17.30;72.83;99652.81;5092759;28;20285;-76
2023/05/03 10:28:41;;;;;;;2.20;1.40;;;;;;;17.69;68.81;99647.53;5056492;28;20271;-76
2023/05/03 10:31:41;;;;;;;2.10;1.53;;;;;;;18.36;64.57;99649.94;5092294;28;20211;-77
2023/05/03 10:34:20;;;;;;;2.23;1.73;;;;;;;18.88;63.59;99639.69;5092398;28;20869;-76
2023/05/03 10:36:51;;;;;;;2.60;1.43;;;;;;;19.61;63.42;99636.75;5092252;28;20258;-77
2023/05/03 10:39:18;;;;;;;1.53;1.30;;;;;;;19.98;57.35;99617.44;5092293;28;20223;-76
2023/05/03 10:41:45;;;;;;;3.10;1.73;;;;;;;20.02;52.56;99619.56;5092421;28;20233;-76
2023/05/03 10:44:29;;;;;;;1.50;1.27;;;;;;;19.96;56.25;99615.03;5092286;28;20250;-76
2023/05/03 10:46:56;;;;;;;1.43;1.33;;;;;;;20.32;57.09;99623.34;5092392;28;20660;-77
2023/05/03 10:49:25;;;;;;;2.30;1.47;;;;;;;20.45;52.95;99622.91;5091917;28;20615;-77
2023/05/03 10:51:53;;;;;;;1.50;1.20;;;;;;;20.25;51.97;99616.38;5092085;28;20250;-78
2023/05/03 10:54:20;;;;;;;1.60;1.30;;;;;;;20.08;51.37;99618.13;5091303;28;20219;-78
2023/05/03 10:56:54;;;;;;;1.60;1.50;;;;;;;20.14;51.13;99622.69;5091747;28;20206;-76
2023/05/03 10:59:23;;;;;;;2.07;1.60;;;;;;;20.30;51.35;99624.47;5091476;28;20278;-78
2023/05/03 11:01:52;;;;;;;1.53;1.43;;;;;;;20.79;52.49;99627.13;5091977;28;20689;-77
2023/05/03 11:04:39;;;;;;;4.10;1.33;;;;;;;20.69;50.60;99616.13;5091955;28;20312;-76
2023/05/03 11:07:08;;;;;;;1.80;1.30;;;;;;;21.14;46.61;99619.94;5091580;28;20210;-78
2023/05/03 11:09:36;;;;;;;2.10;1.33;;;;;;;21.30;46.33;99613.91;5091683;28;20238;-76
2023/05/03 11:12:08;;;;;;;1.47;1.30;;;;;;;21.36;46.45;99616.69;5091660;28;20221;-78
2023/05/03 11:14:35;;;;;;;2.07;1.43;;;;;;;21.44;47.28;99616.66;5091676;28;20208;-78
2023/05/03 11:17:02;;;;;;;1.77;1.50;;;;;;;21.82;47.32;99609.00;5091925;28;20282;-79
2023/05/03 11:19:29;;;;;;;1.43;1.33;;;;;;;22.19;48.23;99615.31;5091558;28;20770;-80
2023/05/03 11:21:57;;;;;;;2.00;1.57;;;;;;;21.78;47.30;99618.13;5091401;28;20945;-79
2023/05/03 11:24:25;;;;;;;1.70;1.30;;;;;;;21.76;46.93;99614.91;5091216;28;20230;-77
2023/05/03 11:26:52;;;;;;;3.13;1.60;;;;;;;22.05;45.85;99611.66;5091874;28;20199;-80
2023/05/03 11:29:20;;;;;;;1.87;1.40;;;;;;;22.36;45.75;99621.22;5091347;28;20291;-80
2023/05/03 11:31:47;;;;;;;2.17;1.47;;;;;;;22.52;45.49;99615.09;5091443;28;20743;-78
2023/05/03 11:34:14;;;;;;;2.20;1.50;;;;;;;22.26;43.00;99618.88;5091123;28;20218;-77
2023/05/03 11:36:41;;;;;;;2.65;1.48;;;;;;;22.31;44.12;99615.72;5090839;28;20199;-81
2023/05/03 11:39:08;;;;;;;1.67;1.58;;;;;;;22.33;43.53;99609.34;5091056;28;20221;-77
2023/05/03 11:41:36;;;;;;;1.93;1.60;;;;;;;22.24;44.49;99600.00;5091427;28;20564;-78
2023/05/03 11:44:04;;;;;;;1.77;1.60;;;;;;;22.27;43.37;99596.22;5090917;28;20238;-77
2023/05/03 11:46:34;;;;;;;1.60;1.33;;;;;;;22.33;43.63;99601.53;5091240;28;20203;-79
2023/05/03 11:49:01;;;;;;;1.67;1.40;;;;;;;22.72;42.35;99589.34;5091043;28;20275;-80
2023/05/03 11:51:30;;;;;;;1.88;1.33;;;;;;;22.57;41.36;99581.47;5090833;28;20202;-80
2023/05/03 11:53:57;;;;;;;2.00;1.60;;;;;;;22.62;40.56;99573.97;5091168;28;20226;-78
2023/05/03 11:56:24;;;;;;;1.23;1.10;;;;;;;22.90;40.06;99586.41;5090698;28;20198;-80
2023/05/03 11:58:55;;;;;;;1.63;1.30;;;;;;;22.93;38.52;99586.88;5090862;28;20210;-77
2023/05/03 12:01:23;;;;;;;1.50;1.33;;;;;;;22.82;38.76;99589.91;5090269;28;20285;-80
2023/05/03 12:03:54;;;;;;;1.30;1.10;;;;;;;22.73;37.75;99576.13;5090596;28;20295;-79
2023/05/03 12:06:21;;;;;;;1.88;1.30;;;;;;;22.58;39.29;99562.28;5090600;28;20654;-79
2023/05/03 12:08:47;;;;;;;2.40;1.00;;;;;;;22.54;41.11;99571.41;5090343;28;20218;-77
2023/05/03 12:11:14;;;;;;;1.85;1.50;;;;;;;22.88;39.79;99577.97;5090715;28;20263;-77
2023/05/03 12:13:41;;;;;;;1.52;1.10;;;;;;;22.68;39.60;99573.25;5090817;28;20226;-79
2023/05/03 12:16:13;;;;;;;1.75;1.33;;;;;;;22.46;39.40;99584.53;5090946;28;20202;-78
2023/05/03 12:18:50;;;;;;;1.70;1.38;;;;;;;22.02;40.21;99577.31;5090663;28;20214;-77
2023/05/03 12:21:18;;;;;;;1.55;1.30;;;;;;;21.61;42.72;99580.13;5090484;28;20748;-80
2023/05/03 12:23:45;;;;;;;2.70;1.30;;;;;;;21.40;40.88;99576.31;5090244;28;20234;-81
2023/05/03 12:26:13;;;;;;;1.83;1.40;;;;;;;21.48;43.27;99571.09;5090283;28;20223;-77
2023/05/03 12:28:40;;;;;;;1.73;0.90;;;;;;;21.95;41.47;99561.56;5090610;28;20669;-76
2023/05/03 12:31:06;;;;;;;1.20;1.03;;;;;;;22.23;42.13;99546.28;5090472;28;20213;-77
2023/05/03 12:33:35;;;;;;;1.63;1.47;;;;;;;22.39;41.36;99547.94;5089976;28;20216;-77
2023/05/03 12:36:02;;;;;;;1.35;1.15;;;;;;;22.43;41.68;99548.38;5090222;28;20255;-80
2023/05/03 12:38:29;;;;;;;4.82;1.30;;;;;;;22.65;41.99;99552.75;5089993;28;20218;-80
2023/05/03 12:40:56;;;;;;;1.50;1.30;;;;;;;22.73;42.11;99544.84;5090067;28;20255;-79
2023/05/03 12:43:23;;;;;;;1.65;1.20;;;;;;;23.05;44.25;99541.13;5089982;28;20230;-81
2023/05/03 12:45:50;;;;;;;2.35;1.60;;;;;;;22.98;41.87;99536.78;5089896;28;20682;-78
2023/05/03 12:48:17;;;;;;;3.65;1.60;;;;;;;22.99;41.51;99539.25;5090284;28;20733;-77
2023/05/03 12:50:45;;;;;;;1.40;1.30;;;;;;;23.23;42.88;99532.13;5090103;28;20237;-78
2023/05/03 12:53:12;;;;;;;1.50;1.40;;;;;;;23.14;41.14;99515.75;5089804;28;20218;-80
2023/05/03 12:55:39;;;;;;;1.30;1.20;;;;;;;23.18;40.24;99522.22;5089959;28;20209;-77